Time;durP1;ratioP1;P1;durP2;ratioP2;P2;SDS_P1;SDS_P2;PMS_P1;PMS_P2;Temp;Humidity;BMP_temperature;BMP_pressure;BME280_temperature;BME280_humidity;BME280_pressure;Samples;Min_cycle;Max_cycle;Signal;HPM_P1;HPM_P2
2022/02/07 00:01:59;;;;;;;121.90;62.25;;;;;;;;;;6257972;28;20124;-63
2022/02/07 00:05:00;;;;;;;114.97;60.17;;;;;;;;;;6246766;28;20401;-64
2022/02/07 00:08:02;;;;;;;119.88;61.40;;;;;;;;;;6255029;28;20302;-65
2022/02/07 00:11:04;;;;;;;120.65;61.55;;;;;;;;;;6257218;28;20045;-63
2022/02/07 00:14:07;;;;;;;120.03;59.90;;;;;;;;;;6257234;28;20131;-64
2022/02/07 00:17:08;;;;;;;117.18;59.58;;;;;;;;;;6256423;28;20108;-64
2022/02/07 00:20:16;;;;;;;124.45;61.95;;;;;;;;;;6260364;28;20057;-64
2022/02/07 00:23:18;;;;;;;117.63;61.58;;;;;;;;;;6256308;28;20053;-64
2022/02/07 00:26:19;;;;;;;123.30;61.03;;;;;;;;;;6251749;28;20046;-65
2022/02/07 00:29:23;;;;;;;122.88;60.55;;;;;;;;;;6252373;28;20080;-63
2022/02/07 00:32:24;;;;;;;128.43;63.70;;;;;;;;;;6248374;28;20096;-64
2022/02/07 00:35:26;;;;;;;119.75;59.97;;;;;;;;;;6251658;28;20077;-64
2022/02/07 00:38:27;;;;;;;128.30;63.85;;;;;;;;;;6252642;28;20061;-64
2022/02/07 00:41:37;;;;;;;123.35;62.15;;;;;;;;;;6254221;28;20049;-64
2022/02/07 00:44:40;;;;;;;131.25;63.75;;;;;;;;;;6254373;28;20167;-64
2022/02/07 00:47:42;;;;;;;124.63;60.25;;;;;;;;;;6248549;28;20191;-63
2022/02/07 00:50:45;;;;;;;130.55;63.30;;;;;;;;;;6248730;28;20045;-63
2022/02/07 00:53:46;;;;;;;120.07;61.25;;;;;;;;;;6254224;28;20118;-64
2022/02/07 00:56:48;;;;;;;129.70;62.97;;;;;;;;;;6263521;28;20176;-63
2022/02/07 00:59:51;;;;;;;130.20;64.05;;;;;;;;;;6257984;28;20211;-64
2022/02/07 01:02:53;;;;;;;127.28;61.85;;;;;;;;;;6250324;28;20521;-65
2022/02/07 01:05:55;;;;;;;123.47;61.97;;;;;;;;;;6255547;28;20126;-64
2022/02/07 01:09:10;;;;;;;124.03;60.15;;;;;;;;;;6253233;28;20046;-64
2022/02/07 01:12:19;;;;;;;124.40;60.67;;;;;;;;;;6248625;28;20264;-63
2022/02/07 01:15:31;;;;;;;123.57;61.28;;;;;;;;;;6248288;28;20125;-64
2022/02/07 01:22:13;;;;;;;123.07;62.75;;;;;;;;;;6248009;28;20058;-65
2022/02/07 01:55:17;;;;;;;114.70;57.55;;;;;;;;;;6249605;28;20052;-64
2022/02/07 01:58:21;;;;;;;115.63;58.70;;;;;;;;;;6253538;28;20059;-64
2022/02/07 02:01:23;;;;;;;116.70;58.38;;;;;;;;;;6249162;28;20516;-64
2022/02/07 02:04:26;;;;;;;119.70;60.05;;;;;;;;;;6245854;28;20529;-64
2022/02/07 02:07:28;;;;;;;115.82;59.13;;;;;;;;;;6253087;28;20172;-64
2022/02/07 02:10:30;;;;;;;112.57;58.05;;;;;;;;;;6253175;28;20123;-63
2022/02/07 02:13:44;;;;;;;112.63;56.88;;;;;;;;;;6258181;28;20057;-64
2022/02/07 02:17:00;;;;;;;;;;;;;;;;;;6260336;28;20041;-63
2022/02/07 02:33:57;;;;;;;107.68;55.83;;;;;;;;;;6259017;28;20053;-63
2022/02/07 02:37:11;;;;;;;109.15;57.20;;;;;;;;;;6249696;28;20056;-63
2022/02/07 02:46:53;;;;;;;108.22;58.00;;;;;;;;;;6257973;28;20046;-63
2022/02/07 02:50:05;;;;;;;113.13;56.55;;;;;;;;;;6261665;28;20056;-65
2022/02/07 02:53:08;;;;;;;105.80;54.53;;;;;;;;;;6259197;28;20045;-65
2022/02/07 02:56:11;;;;;;;99.30;52.53;;;;;;;;;;6262690;28;20080;-63
2022/02/07 02:59:12;;;;;;;107.22;53.42;;;;;;;;;;6261310;28;20095;-64
2022/02/07 03:02:14;;;;;;;104.95;54.03;;;;;;;;;;6256142;28;20118;-64
2022/02/07 03:05:16;;;;;;;99.88;54.00;;;;;;;;;;6259079;28;20139;-63
2022/02/07 03:08:19;;;;;;;96.95;53.33;;;;;;;;;;6255663;28;20064;-65
2022/02/07 03:11:24;;;;;;;99.60;52.15;;;;;;;;;;6253030;28;20571;-65
2022/02/07 03:14:36;;;;;;;102.50;53.25;;;;;;;;;;6248174;28;20052;-63
2022/02/07 03:17:37;;;;;;;101.22;54.33;;;;;;;;;;6257157;28;20434;-64
2022/02/07 03:20:39;;;;;;;109.20;53.45;;;;;;;;;;6252630;28;20055;-64
2022/02/07 03:23:40;;;;;;;101.53;53.60;;;;;;;;;;6256584;28;20619;-64
2022/02/07 03:26:44;;;;;;;107.43;55.08;;;;;;;;;;6254297;28;20508;-65
2022/02/07 03:29:46;;;;;;;101.22;53.35;;;;;;;;;;6262147;28;20046;-64
2022/02/07 03:32:47;;;;;;;112.47;56.33;;;;;;;;;;6254982;28;20172;-64
2022/02/07 03:35:49;;;;;;;99.97;52.13;;;;;;;;;;6250026;28;20557;-65
2022/02/07 03:38:51;;;;;;;106.60;54.55;;;;;;;;;;6250472;28;20069;-63
2022/02/07 03:41:54;;;;;;;102.03;53.17;;;;;;;;;;6248145;28;20042;-65
2022/02/07 03:44:55;;;;;;;104.20;54.10;;;;;;;;;;6255664;28;20044;-64
2022/02/07 03:47:57;;;;;;;102.97;54.90;;;;;;;;;;6251460;28;20205;-64
2022/02/07 03:50:59;;;;;;;95.30;51.40;;;;;;;;;;6257935;28;20153;-64
2022/02/07 03:54:00;;;;;;;102.57;52.17;;;;;;;;;;6255515;28;20073;-64
2022/02/07 03:57:04;;;;;;;101.53;52.22;;;;;;;;;;6254329;28;20127;-64
2022/02/07 04:00:08;;;;;;;103.53;52.30;;;;;;;;;;6251681;28;20111;-64
2022/02/07 04:03:10;;;;;;;105.00;53.00;;;;;;;;;;6254866;28;20539;-64
2022/02/07 04:06:15;;;;;;;97.07;52.72;;;;;;;;;;6246519;28;20051;-63
2022/02/07 04:09:21;;;;;;;98.60;52.65;;;;;;;;;;6253599;28;20045;-64
2022/02/07 04:12:27;;;;;;;98.43;52.33;;;;;;;;;;6249678;28;20132;-64
2022/02/07 04:15:29;;;;;;;98.72;52.95;;;;;;;;;;6254496;28;20061;-65
2022/02/07 04:18:34;;;;;;;92.30;52.63;;;;;;;;;;6251323;28;20042;-64
2022/02/07 04:21:38;;;;;;;95.22;49.78;;;;;;;;;;6256787;28;20060;-63
2022/02/07 04:24:39;;;;;;;94.97;51.00;;;;;;;;;;6257646;28;20049;-63
2022/02/07 04:27:42;;;;;;;97.22;52.22;;;;;;;;;;6260086;28;20106;-64
2022/02/07 04:30:44;;;;;;;91.90;49.65;;;;;;;;;;6250317;28;20128;-64
2022/02/07 04:33:46;;;;;;;92.57;49.60;;;;;;;;;;6258188;28;20140;-64
2022/02/07 04:36:53;;;;;;;94.13;49.55;;;;;;;;;;6252730;28;20124;-64
2022/02/07 04:39:55;;;;;;;89.68;48.58;;;;;;;;;;6252923;28;20045;-64
2022/02/07 04:42:58;;;;;;;92.63;47.83;;;;;;;;;;6252853;28;20072;-63
2022/02/07 04:46:08;;;;;;;91.23;50.77;;;;;;;;;;6250549;28;20050;-63
2022/02/07 04:49:21;;;;;;;88.70;48.15;;;;;;;;;;6249557;28;20517;-64
2022/02/07 04:52:41;;;;;;;90.53;47.15;;;;;;;;;;6246296;28;20049;-63
2022/02/07 04:55:46;;;;;;;84.55;48.17;;;;;;;;;;6249735;28;20485;-64
2022/02/07 04:59:00;;;;;;;89.50;46.92;;;;;;;;;;6257353;28;20508;-64
2022/02/07 05:02:08;;;;;;;88.05;48.25;;;;;;;;;;6248296;28;20053;-65
2022/02/07 05:05:22;;;;;;;86.32;45.92;;;;;;;;;;6252046;28;20053;-63
2022/02/07 05:15:03;;;;;;;84.13;47.58;;;;;;;;;;6248817;28;20049;-63
2022/02/07 05:18:05;;;;;;;84.25;46.70;;;;;;;;;;6251661;28;20045;-64
2022/02/07 05:21:07;;;;;;;84.43;46.90;;;;;;;;;;6252406;28;20037;-64
2022/02/07 05:24:09;;;;;;;81.53;45.20;;;;;;;;;;6257712;28;20083;-65
2022/02/07 05:27:10;;;;;;;85.65;46.50;;;;;;;;;;6259911;28;20127;-64
2022/02/07 05:30:13;;;;;;;83.80;44.85;;;;;;;;;;6254908;28;20041;-64
2022/02/07 05:33:15;;;;;;;81.70;45.53;;;;;;;;;;6257564;28;20124;-64
2022/02/07 05:36:17;;;;;;;78.28;43.85;;;;;;;;;;6256276;28;20184;-64
2022/02/07 05:39:19;;;;;;;76.25;42.60;;;;;;;;;;6246709;28;20119;-64
2022/02/07 05:42:21;;;;;;;96.75;55.10;;;;;;;;;;6245507;28;20092;-64
2022/02/07 05:45:24;;;;;;;80.32;44.75;;;;;;;;;;6251738;28;20131;-64
2022/02/07 05:48:25;;;;;;;74.43;40.47;;;;;;;;;;6249759;28;20134;-64
2022/02/07 05:51:27;;;;;;;76.68;42.83;;;;;;;;;;6255209;28;20073;-63
2022/02/07 05:54:28;;;;;;;70.68;40.22;;;;;;;;;;6255021;28;20053;-63
2022/02/07 05:57:30;;;;;;;76.82;42.00;;;;;;;;;;6252192;28;20152;-63
2022/02/07 06:00:34;;;;;;;74.80;43.67;;;;;;;;;;6256531;28;20543;-63
2022/02/07 06:03:35;;;;;;;81.90;44.40;;;;;;;;;;6251850;28;20049;-64
2022/02/07 06:06:37;;;;;;;76.78;42.55;;;;;;;;;;6256990;28;20136;-63
2022/02/07 06:09:39;;;;;;;76.75;41.15;;;;;;;;;;6258506;28;20130;-64
2022/02/07 06:12:43;;;;;;;84.55;45.22;;;;;;;;;;6257180;28;20456;-64
2022/02/07 06:15:47;;;;;;;74.72;42.15;;;;;;;;;;6260586;28;20049;-64
2022/02/07 06:18:49;;;;;;;72.20;42.67;;;;;;;;;;6259481;28;20687;-64
2022/02/07 06:21:52;;;;;;;69.45;38.75;;;;;;;;;;6258541;28;20080;-64
2022/02/07 06:24:53;;;;;;;74.18;40.70;;;;;;;;;;6252865;28;20142;-64
2022/02/07 06:27:55;;;;;;;68.30;37.92;;;;;;;;;;6254418;28;20191;-63
2022/02/07 06:30:58;;;;;;;73.53;39.75;;;;;;;;;;6256249;28;20521;-65
2022/02/07 06:33:59;;;;;;;66.90;38.60;;;;;;;;;;6255155;28;20081;-65
2022/02/07 06:37:01;;;;;;;62.97;35.92;;;;;;;;;;6254906;28;20191;-65
2022/02/07 06:40:03;;;;;;;60.22;34.70;;;;;;;;;;6257086;28;20151;-65
2022/02/07 06:43:05;;;;;;;61.50;34.85;;;;;;;;;;6260880;28;20138;-64
2022/02/07 06:46:08;;;;;;;64.40;35.13;;;;;;;;;;6257302;28;20092;-63
2022/02/07 06:49:10;;;;;;;61.20;34.15;;;;;;;;;;6259974;28;20123;-62
2022/02/07 06:52:12;;;;;;;59.30;33.33;;;;;;;;;;6260528;28;20064;-65
2022/02/07 06:55:13;;;;;;;60.45;33.55;;;;;;;;;;6256685;28;20130;-64
2022/02/07 06:58:15;;;;;;;59.33;31.50;;;;;;;;;;6259311;28;20091;-64
2022/02/07 07:01:18;;;;;;;51.97;31.20;;;;;;;;;;6255252;28;20145;-64
2022/02/07 07:04:21;;;;;;;51.30;30.88;;;;;;;;;;6260383;28;20126;-64
2022/02/07 07:07:22;;;;;;;55.75;30.02;;;;;;;;;;6259407;28;20041;-64
2022/02/07 07:10:24;;;;;;;50.15;30.15;;;;;;;;;;6254523;28;20061;-64
2022/02/07 07:13:37;;;;;;;55.80;29.02;;;;;;;;;;6253732;28;20365;-65
2022/02/07 07:16:50;;;;;;;51.22;27.48;;;;;;;;;;6257540;28;20502;-63
2022/02/07 07:19:52;;;;;;;42.88;25.45;;;;;;;;;;6261529;28;20055;-65
2022/02/07 07:22:53;;;;;;;43.35;24.55;;;;;;;;;;6263222;28;20448;-64
2022/02/07 07:25:55;;;;;;;43.90;23.35;;;;;;;;;;6262165;28;20509;-64
2022/02/07 07:28:58;;;;;;;34.85;22.70;;;;;;;;;;6259836;28;20067;-65
2022/02/07 07:32:03;;;;;;;35.30;21.40;;;;;;;;;;6258480;28;20508;-65
2022/02/07 07:35:05;;;;;;;32.60;19.73;;;;;;;;;;6254584;28;20045;-64
2022/02/07 07:38:07;;;;;;;29.55;18.50;;;;;;;;;;6259391;28;20052;-64
2022/02/07 07:41:11;;;;;;;32.47;17.88;;;;;;;;;;6246330;28;20541;-62
2022/02/07 07:44:14;;;;;;;29.77;17.77;;;;;;;;;;6251378;28;20484;-64
2022/02/07 07:47:23;;;;;;;30.25;16.38;;;;;;;;;;6255522;28;20510;-64
2022/02/07 07:50:30;;;;;;;25.75;15.25;;;;;;;;;;6254237;28;20049;-64
2022/02/07 07:53:45;;;;;;;17.33;9.73;;;;;;;;;;6255571;28;20052;-63
2022/02/07 08:03:28;;;;;;;17.58;3.35;;;;;;;;;;6252827;28;20465;-62
2022/02/07 08:06:36;;;;;;;4.57;1.20;;;;;;;;;;6250261;28;20049;-62
2022/02/07 08:10:00;;;;;;;7.57;0.73;;;;;;;;;;6254877;28;20056;-64
2022/02/07 08:13:01;;;;;;;3.08;0.93;;;;;;;;;;6250263;28;20057;-64
2022/02/07 08:16:04;;;;;;;2.85;0.57;;;;;;;;;;6254853;28;20064;-64
2022/02/07 08:19:07;;;;;;;8.20;0.73;;;;;;;;;;6250793;28;20413;-64
2022/02/07 08:22:09;;;;;;;1.73;0.60;;;;;;;;;;6252225;28;20497;-65
2022/02/07 08:25:11;;;;;;;3.13;0.50;;;;;;;;;;6257087;28;20046;-64
2022/02/07 08:28:13;;;;;;;4.32;0.55;;;;;;;;;;6252838;28;20521;-65
2022/02/07 08:31:17;;;;;;;2.92;0.60;;;;;;;;;;6257637;28;20045;-64
2022/02/07 08:34:20;;;;;;;5.68;0.40;;;;;;;;;;6258391;28;20136;-65
2022/02/07 08:37:21;;;;;;;13.90;0.80;;;;;;;;;;6255707;28;20080;-66
2022/02/07 08:40:25;;;;;;;5.45;0.50;;;;;;;;;;6253122;28;20473;-66
2022/02/07 08:43:27;;;;;;;6.07;0.80;;;;;;;;;;6252774;28;20149;-65
2022/02/07 08:46:28;;;;;;;7.18;0.60;;;;;;;;;;6247405;28;20123;-67
2022/02/07 08:49:32;;;;;;;4.65;0.30;;;;;;;;;;6256683;28;20126;-65
2022/02/07 08:52:33;;;;;;;0.98;0.63;;;;;;;;;;6247223;28;20136;-64
2022/02/07 08:55:37;;;;;;;9.85;0.82;;;;;;;;;;6249694;28;20505;-65
2022/02/07 08:58:42;;;;;;;4.70;0.30;;;;;;;;;;6248396;28;20060;-65
2022/02/07 09:01:50;;;;;;;3.55;0.50;;;;;;;;;;6250679;28;20383;-65
2022/02/07 09:05:07;;;;;;;7.15;0.77;;;;;;;;;;6250726;28;20072;-65
2022/02/07 09:08:22;;;;;;;14.27;0.65;;;;;;;;;;6247601;28;20053;-64
2022/02/07 09:11:24;;;;;;;11.82;0.90;;;;;;;;;;6248377;28;20116;-65
2022/02/07 09:14:26;;;;;;;7.78;0.85;;;;;;;;;;6249635;28;20088;-65
2022/02/07 09:17:28;;;;;;;14.30;2.13;;;;;;;;;;6250818;28;20456;-64
2022/02/07 09:20:31;;;;;;;11.00;0.70;;;;;;;;;;6251831;28;20408;-63
2022/02/07 09:23:33;;;;;;;8.50;1.25;;;;;;;;;;6255829;28;20136;-64
2022/02/07 09:26:35;;;;;;;18.52;1.58;;;;;;;;;;6256844;28;20194;-65
2022/02/07 09:29:36;;;;;;;13.35;1.25;;;;;;;;;;6259199;28;20065;-65
2022/02/07 09:32:38;;;;;;;11.88;0.73;;;;;;;;;;6258638;28;20164;-65
2022/02/07 09:35:42;;;;;;;8.88;0.55;;;;;;;;;;6259891;28;20095;-62
2022/02/07 09:38:45;;;;;;;4.70;0.40;;;;;;;;;;6257095;28;20529;-66
2022/02/07 09:41:48;;;;;;;14.02;0.70;;;;;;;;;;6259365;28;20049;-65
2022/02/07 09:44:53;;;;;;;13.55;1.10;;;;;;;;;;6260489;28;20465;-64
2022/02/07 09:47:55;;;;;;;8.70;0.70;;;;;;;;;;6266322;28;20052;-64
2022/02/07 09:50:58;;;;;;;42.47;4.28;;;;;;;;;;6264571;28;20178;-65
2022/02/07 09:54:00;;;;;;;6.25;0.60;;;;;;;;;;6260186;28;20476;-64
2022/02/07 09:57:02;;;;;;;34.78;1.60;;;;;;;;;;6261045;28;20374;-64
2022/02/07 10:00:08;;;;;;;11.00;0.70;;;;;;;;;;6263075;28;20046;-63
2022/02/07 10:03:13;;;;;;;6.85;0.60;;;;;;;;;;6255976;28;20504;-63
2022/02/07 10:06:30;;;;;;;7.72;0.73;;;;;;;;;;6263761;28;20056;-63
2022/02/07 10:13:13;;;;;;;5.20;0.70;;;;;;;;;;6220127;28;20068;-63
2022/02/07 10:16:35;;;;;;;7.85;0.75;;;;;;;;;;6258923;28;20037;-63
2022/02/07 10:19:48;;;;;;;18.88;1.30;;;;;;;;;;6260577;28;20124;-64
2022/02/07 10:39:37;;;;;;;10.82;0.60;;;;;;;;;;6253604;28;20049;-65
2022/02/07 10:43:07;;;;;;;9.80;0.70;;;;;;;;;;6253940;28;20058;-63
2022/02/07 10:46:13;;;;;;;9.57;0.80;;;;;;;;;;6255540;28;20053;-64
2022/02/07 10:49:15;;;;;;;20.65;2.28;;;;;;;;;;6254615;28;20508;-65
2022/02/07 10:52:16;;;;;;;8.38;0.82;;;;;;;;;;6251559;28;20115;-64
2022/02/07 10:55:21;;;;;;;4.60;0.63;;;;;;;;;;6259362;28;20473;-64
2022/02/07 10:58:25;;;;;;;6.80;0.63;;;;;;;;;;6262999;28;20347;-63
2022/02/07 11:01:39;;;;;;;7.57;0.30;;;;;;;;;;6259029;28;20053;-65
2022/02/07 11:04:45;;;;;;;4.85;0.30;;;;;;;;;;6254267;28;20541;-65
2022/02/07 11:07:53;;;;;;;0.68;0.20;;;;;;;;;;6255511;28;20060;-65
2022/02/07 11:11:27;;;;;;;2.78;0.30;;;;;;;;;;6259067;28;20531;-64
2022/02/07 11:14:43;;;;;;;3.05;0.45;;;;;;;;;;6255048;28;20049;-64
2022/02/07 11:18:01;;;;;;;2.60;0.20;;;;;;;;;;6262171;28;20041;-64
2022/02/07 11:21:17;;;;;;;4.35;0.40;;;;;;;;;;6254483;28;20051;-64
2022/02/07 11:24:25;;;;;;;4.40;0.50;;;;;;;;;;6259154;28;20244;-64
2022/02/07 11:27:36;;;;;;;0.50;0.20;;;;;;;;;;6253646;28;20477;-65
2022/02/07 11:30:47;;;;;;;3.92;0.50;;;;;;;;;;6258624;28;20535;-64
2022/02/07 11:33:51;;;;;;;6.13;0.50;;;;;;;;;;6255875;28;20054;-64
2022/02/07 11:36:53;;;;;;;2.75;0.30;;;;;;;;;;6255597;28;20049;-65
2022/02/07 11:39:54;;;;;;;7.95;0.60;;;;;;;;;;6251460;28;20532;-65
2022/02/07 11:43:11;;;;;;;1.55;0.40;;;;;;;;;;6251616;28;20087;-64
2022/02/07 11:46:14;;;;;;;1.95;0.50;;;;;;;;;;6254859;28;20085;-63
2022/02/07 11:49:24;;;;;;;0.90;0.25;;;;;;;;;;6255820;28;20046;-64
2022/02/07 11:52:31;;;;;;;2.83;0.32;;;;;;;;;;6252605;28;20109;-64
2022/02/07 11:55:35;;;;;;;6.47;0.60;;;;;;;;;;6256430;28;20172;-66
2022/02/07 11:59:12;;;;;;;1.65;0.22;;;;;;;;;;6255200;28;20061;-63
2022/02/07 12:02:18;;;;;;;5.80;0.43;;;;;;;;;;6259545;28;20046;-65
2022/02/07 12:05:20;;;;;;;4.38;0.30;;;;;;;;;;6256411;28;20673;-65
2022/02/07 12:08:24;;;;;;;1.00;0.30;;;;;;;;;;6251647;28;20124;-65
2022/02/07 12:11:42;;;;;;;1.38;0.40;;;;;;;;;;6257278;28;20755;-68
2022/02/07 12:14:47;;;;;;;0.77;0.30;;;;;;;;;;6254491;28;20048;-66
2022/02/07 12:17:50;;;;;;;4.80;0.73;;;;;;;;;;6259006;28;20052;-66
2022/02/07 12:20:53;;;;;;;1.20;0.23;;;;;;;;;;6255245;28;20127;-66
2022/02/07 12:23:57;;;;;;;1.50;0.40;;;;;;;;;;6256321;28;20128;-66
2022/02/07 12:27:01;;;;;;;11.13;0.68;;;;;;;;;;6256716;28;20102;-65
2022/02/07 12:30:17;;;;;;;8.70;1.00;;;;;;;;;;6257743;28;20453;-66
2022/02/07 12:33:19;;;;;;;2.03;0.40;;;;;;;;;;6258338;28;20099;-66
2022/02/07 12:36:21;;;;;;;0.90;0.25;;;;;;;;;;6261076;28;20053;-66
2022/02/07 12:39:23;;;;;;;4.55;0.52;;;;;;;;;;6254762;28;20125;-67
2022/02/07 12:42:24;;;;;;;1.88;0.57;;;;;;;;;;6254741;28;20056;-65
2022/02/07 12:45:29;;;;;;;1.60;0.50;;;;;;;;;;6256680;28;20053;-66
2022/02/07 12:48:33;;;;;;;1.73;0.68;;;;;;;;;;6256467;28;20076;-65
2022/02/07 12:51:42;;;;;;;3.20;0.73;;;;;;;;;;6263555;28;20157;-65
2022/02/07 12:54:43;;;;;;;1.20;0.70;;;;;;;;;;6257183;28;20048;-64
2022/02/07 12:57:46;;;;;;;2.92;0.47;;;;;;;;;;6262467;28;20058;-64
2022/02/07 13:00:49;;;;;;;4.80;0.73;;;;;;;;;;6255160;28;20138;-66
2022/02/07 13:03:53;;;;;;;1.95;0.40;;;;;;;;;;6263740;28;20479;-64
2022/02/07 13:06:55;;;;;;;5.30;0.98;;;;;;;;;;6255984;28;20132;-66
2022/02/07 13:09:57;;;;;;;1.97;0.47;;;;;;;;;;6256954;28;20514;-65
2022/02/07 13:13:15;;;;;;;3.90;0.70;;;;;;;;;;6255601;28;20088;-65
2022/02/07 13:16:19;;;;;;;3.20;0.30;;;;;;;;;;6259126;28;20053;-65
2022/02/07 13:19:21;;;;;;;1.73;0.43;;;;;;;;;;6260410;28;20041;-65
2022/02/07 13:22:25;;;;;;;2.13;0.30;;;;;;;;;;6253997;28;20053;-65
2022/02/07 13:25:26;;;;;;;2.08;0.40;;;;;;;;;;6257011;28;20045;-65
2022/02/07 13:28:30;;;;;;;2.00;0.40;;;;;;;;;;6255331;28;20045;-65
2022/02/07 13:31:37;;;;;;;4.22;0.43;;;;;;;;;;6256282;28;20049;-65
2022/02/07 13:34:41;;;;;;;1.00;0.40;;;;;;;;;;6258210;28;20084;-65
2022/02/07 13:37:43;;;;;;;1.65;0.40;;;;;;;;;;6255981;28;20477;-65
2022/02/07 13:40:46;;;;;;;0.90;0.47;;;;;;;;;;6252560;28;20045;-66
2022/02/07 13:43:48;;;;;;;3.10;0.30;;;;;;;;;;6254001;28;20128;-65
2022/02/07 13:46:51;;;;;;;1.80;0.40;;;;;;;;;;6261006;28;20479;-66
2022/02/07 13:49:54;;;;;;;1.00;0.40;;;;;;;;;;6255934;28;20122;-66
2022/02/07 13:53:03;;;;;;;1.92;0.40;;;;;;;;;;6257000;28;20053;-66
2022/02/07 13:56:05;;;;;;;0.95;0.40;;;;;;;;;;6256684;28;20045;-67
2022/02/07 13:59:15;;;;;;;2.63;0.63;;;;;;;;;;6253651;28;20045;-64
2022/02/07 14:02:27;;;;;;;0.88;0.40;;;;;;;;;;6262611;28;20401;-65
2022/02/07 14:05:32;;;;;;;1.80;0.50;;;;;;;;;;6257293;28;20052;-64
2022/02/07 14:08:36;;;;;;;2.05;0.25;;;;;;;;;;6258666;28;20069;-64
2022/02/07 14:11:37;;;;;;;0.95;0.45;;;;;;;;;;6258483;28;20060;-64
2022/02/07 14:14:39;;;;;;;0.50;0.30;;;;;;;;;;6258799;28;22765;-64
2022/02/07 14:17:45;;;;;;;3.10;0.38;;;;;;;;;;6258697;28;20196;-64
2022/02/07 14:20:47;;;;;;;1.80;0.40;;;;;;;;;;6256270;28;20114;-64
2022/02/07 14:23:50;;;;;;;2.25;0.60;;;;;;;;;;6259239;28;20167;-64
2022/02/07 14:26:52;;;;;;;0.77;0.38;;;;;;;;;;6263805;28;20049;-64
2022/02/07 14:29:53;;;;;;;4.30;0.60;;;;;;;;;;6257537;28;20190;-65
2022/02/07 14:32:56;;;;;;;0.38;0.25;;;;;;;;;;6261958;28;20041;-64
2022/02/07 14:35:58;;;;;;;1.35;0.40;;;;;;;;;;6256105;28;20080;-64
2022/02/07 14:39:00;;;;;;;0.68;0.30;;;;;;;;;;6259438;28;20394;-63
2022/02/07 14:42:04;;;;;;;6.82;0.70;;;;;;;;;;6254037;28;20048;-65
2022/02/07 14:45:13;;;;;;;2.65;0.45;;;;;;;;;;6253923;28;20052;-66
2022/02/07 14:48:16;;;;;;;1.35;0.50;;;;;;;;;;6251273;28;20048;-64
2022/02/07 14:51:18;;;;;;;1.75;0.30;;;;;;;;;;6254832;28;20123;-64
2022/02/07 14:54:19;;;;;;;0.85;0.60;;;;;;;;;;6251185;28;20122;-64
2022/02/07 14:57:21;;;;;;;4.95;0.50;;;;;;;;;;6249998;28;20168;-65
2022/02/07 15:00:25;;;;;;;2.17;0.30;;;;;;;;;;6253881;28;20327;-64
2022/02/07 15:03:28;;;;;;;2.35;0.50;;;;;;;;;;6253325;28;20106;-64
2022/02/07 15:06:29;;;;;;;1.98;0.30;;;;;;;;;;6254287;28;20048;-64
2022/02/07 15:09:31;;;;;;;2.50;0.38;;;;;;;;;;6253041;28;20142;-65
2022/02/07 15:12:33;;;;;;;2.05;0.68;;;;;;;;;;6252934;28;20045;-63
2022/02/07 15:15:35;;;;;;;1.58;0.52;;;;;;;;;;6255490;28;20429;-64
2022/02/07 15:18:38;;;;;;;2.47;0.50;;;;;;;;;;6257808;28;20046;-65
2022/02/07 15:21:40;;;;;;;0.60;0.50;;;;;;;;;;6255769;28;20194;-65
2022/02/07 15:24:42;;;;;;;1.42;0.50;;;;;;;;;;6251682;28;20524;-65
2022/02/07 15:27:43;;;;;;;3.63;0.63;;;;;;;;;;6259132;28;20045;-65
2022/02/07 15:30:46;;;;;;;2.78;0.65;;;;;;;;;;6259391;28;20131;-65
2022/02/07 15:33:50;;;;;;;4.00;0.50;;;;;;;;;;6259526;28;20044;-65
2022/02/07 15:36:51;;;;;;;;;;;;;;;;;;6258267;28;20041;-64
2022/02/07 15:39:53;;;;;;;1.98;0.40;;;;;;;;;;6257106;28;20416;-64
2022/02/07 15:42:56;;;;;;;1.98;0.50;;;;;;;;;;6251691;28;20166;-64
2022/02/07 15:45:57;;;;;;;1.80;0.50;;;;;;;;;;6249958;28;20081;-64
2022/02/07 15:49:00;;;;;;;2.47;0.50;;;;;;;;;;6250378;28;20124;-65
2022/02/07 15:52:02;;;;;;;3.43;0.50;;;;;;;;;;6249618;28;20144;-64
2022/02/07 15:55:05;;;;;;;3.78;0.68;;;;;;;;;;6245183;28;20690;-65
2022/02/07 15:58:06;;;;;;;5.95;0.80;;;;;;;;;;6253915;28;20049;-65
2022/02/07 16:01:08;;;;;;;2.10;0.50;;;;;;;;;;6251550;28;20059;-65
2022/02/07 16:04:11;;;;;;;2.45;0.40;;;;;;;;;;6260329;28;20147;-65
2022/02/07 16:07:13;;;;;;;5.13;0.73;;;;;;;;;;6253490;28;20188;-65
2022/02/07 16:10:15;;;;;;;2.47;0.40;;;;;;;;;;6250459;28;20054;-65
2022/02/07 16:13:21;;;;;;;4.30;0.60;;;;;;;;;;6250387;28;20045;-65
2022/02/07 16:16:28;;;;;;;0.50;0.30;;;;;;;;;;6248268;28;20432;-66
2022/02/07 16:19:31;;;;;;;1.88;0.82;;;;;;;;;;6249482;28;20438;-64
2022/02/07 16:22:33;;;;;;;4.07;0.80;;;;;;;;;;6247784;28;20045;-64
2022/02/07 16:25:39;;;;;;;1.63;0.40;;;;;;;;;;6249992;28;20164;-63
2022/02/07 16:28:41;;;;;;;1.35;0.38;;;;;;;;;;6249630;28;20069;-64
2022/02/07 16:31:42;;;;;;;4.63;1.10;;;;;;;;;;6252271;28;20056;-63
2022/02/07 16:34:46;;;;;;;1.83;0.30;;;;;;;;;;6257279;28;20041;-64
2022/02/07 16:37:47;;;;;;;0.90;0.40;;;;;;;;;;6249943;28;20496;-63
2022/02/07 16:40:49;;;;;;;1.80;0.50;;;;;;;;;;6249549;28;20140;-63
2022/02/07 16:43:51;;;;;;;0.70;0.40;;;;;;;;;;6252693;28;20076;-63
2022/02/07 16:46:53;;;;;;;3.08;0.55;;;;;;;;;;6251800;28;20148;-64
2022/02/07 16:49:56;;;;;;;3.75;0.70;;;;;;;;;;6250215;28;20053;-65
2022/02/07 16:52:57;;;;;;;3.15;0.80;;;;;;;;;;6248917;28;20122;-64
2022/02/07 16:55:59;;;;;;;2.95;1.02;;;;;;;;;;6252401;28;20053;-65
2022/02/07 16:59:00;;;;;;;3.03;0.75;;;;;;;;;;6250974;28;20086;-64
2022/02/07 17:02:04;;;;;;;0.88;0.50;;;;;;;;;;6256343;28;20045;-64
2022/02/07 17:05:08;;;;;;;2.58;0.50;;;;;;;;;;6252857;28;20501;-64
2022/02/07 17:08:10;;;;;;;3.53;0.82;;;;;;;;;;6255656;28;20078;-64
2022/02/07 17:11:11;;;;;;;1.15;0.60;;;;;;;;;;6249194;28;20045;-62
2022/02/07 17:14:13;;;;;;;3.13;0.73;;;;;;;;;;6251848;28;20124;-63
2022/02/07 17:17:14;;;;;;;2.60;0.68;;;;;;;;;;6246485;28;20455;-63
2022/02/07 17:20:18;;;;;;;2.00;0.77;;;;;;;;;;6251540;28;20408;-63
2022/02/07 17:23:21;;;;;;;7.72;1.55;;;;;;;;;;6252879;28;20037;-64
2022/02/07 17:26:23;;;;;;;0.90;0.50;;;;;;;;;;6258347;28;20052;-64
2022/02/07 17:29:25;;;;;;;1.90;0.73;;;;;;;;;;6257017;28;20056;-64
2022/02/07 17:32:27;;;;;;;1.10;0.57;;;;;;;;;;6253020;28;20045;-64
2022/02/07 17:35:30;;;;;;;1.90;0.90;;;;;;;;;;6254766;28;20041;-64
2022/02/07 17:38:32;;;;;;;2.13;0.43;;;;;;;;;;6249300;28;20054;-64
2022/02/07 17:41:33;;;;;;;0.75;0.38;;;;;;;;;;6261950;28;20228;-63
2022/02/07 17:44:38;;;;;;;1.60;0.60;;;;;;;;;;6258906;28;20124;-63
2022/02/07 17:47:40;;;;;;;1.40;0.65;;;;;;;;;;6263160;28;20472;-64
2022/02/07 17:50:42;;;;;;;2.25;0.47;;;;;;;;;;6265713;28;20037;-63
2022/02/07 17:53:45;;;;;;;1.17;0.47;;;;;;;;;;6259885;28;20045;-63
2022/02/07 17:56:47;;;;;;;0.98;0.32;;;;;;;;;;6255456;28;20049;-65
2022/02/07 17:59:49;;;;;;;2.33;0.50;;;;;;;;;;6251951;28;20147;-63
2022/02/07 18:02:51;;;;;;;1.00;0.43;;;;;;;;;;6260819;28;20052;-63
2022/02/07 18:05:54;;;;;;;1.65;0.43;;;;;;;;;;6263349;28;20100;-63
2022/02/07 18:08:55;;;;;;;1.83;0.60;;;;;;;;;;6264727;28;20056;-65
2022/02/07 18:11:57;;;;;;;1.25;0.30;;;;;;;;;;6265652;28;20528;-65
2022/02/07 18:14:58;;;;;;;0.82;0.40;;;;;;;;;;6256945;28;20037;-62
2022/02/07 18:18:00;;;;;;;1.02;0.43;;;;;;;;;;6259970;28;20128;-62
2022/02/07 18:21:05;;;;;;;1.08;0.65;;;;;;;;;;6254397;28;20057;-65
2022/02/07 18:24:09;;;;;;;0.75;0.32;;;;;;;;;;6263250;28;20049;-62
2022/02/07 18:27:15;;;;;;;0.65;0.20;;;;;;;;;;6261897;28;20073;-62
2022/02/07 18:30:18;;;;;;;2.00;0.60;;;;;;;;;;6268137;28;20064;-63
2022/02/07 18:33:20;;;;;;;1.00;0.45;;;;;;;;;;6255610;28;20500;-65
2022/02/07 18:36:28;;;;;;;1.55;0.35;;;;;;;;;;6263090;28;20060;-67
2022/02/07 18:39:31;;;;;;;4.25;0.50;;;;;;;;;;6267669;28;20064;-66
2022/02/07 18:42:35;;;;;;;0.75;0.40;;;;;;;;;;6266670;28;20052;-62
2022/02/07 18:45:38;;;;;;;5.15;0.40;;;;;;;;;;6269012;28;20036;-65
2022/02/07 18:48:40;;;;;;;0.80;0.43;;;;;;;;;;6263100;28;20597;-64
2022/02/07 18:51:43;;;;;;;2.58;0.60;;;;;;;;;;6265495;28;20124;-66
2022/02/07 18:54:44;;;;;;;3.22;0.60;;;;;;;;;;6255103;28;20115;-64
2022/02/07 18:57:55;;;;;;;1.17;0.65;;;;;;;;;;6256303;28;20048;-64
2022/02/07 19:01:01;;;;;;;1.70;0.60;;;;;;;;;;6256625;28;20045;-65
2022/02/07 19:04:10;;;;;;;2.25;0.50;;;;;;;;;;6260122;28;20045;-63
2022/02/07 19:07:13;;;;;;;1.40;0.32;;;;;;;;;;6262905;28;20409;-63
2022/02/07 19:10:15;;;;;;;1.98;0.50;;;;;;;;;;6263338;28;20060;-63
2022/02/07 19:13:17;;;;;;;1.42;0.75;;;;;;;;;;6261818;28;20492;-63
2022/02/07 19:16:19;;;;;;;2.95;1.05;;;;;;;;;;6262697;28;20129;-64
2022/02/07 19:19:21;;;;;;;2.63;0.60;;;;;;;;;;6255665;28;20053;-63
2022/02/07 19:22:27;;;;;;;6.43;1.45;;;;;;;;;;6258895;28;20494;-63
2022/02/07 19:25:35;;;;;;;0.93;0.40;;;;;;;;;;6255854;28;20045;-63
2022/02/07 19:28:44;;;;;;;3.85;0.50;;;;;;;;;;6260176;28;20060;-62
2022/02/07 19:31:49;;;;;;;1.45;0.55;;;;;;;;;;6258683;28;20398;-63
2022/02/07 19:34:57;;;;;;;1.45;0.50;;;;;;;;;;6255150;28;20045;-62
2022/02/07 19:38:00;;;;;;;2.63;0.50;;;;;;;;;;6263237;28;20041;-63